sensor_id;sensor_type;location;lat;lon;timestamp;temperature;humidity
3478;DHT22;37937;61.490;23.506;2023-12-20T00:01:44;0.30;99.90
3478;DHT22;37937;61.490;23.506;2023-12-20T00:04:10;0.30;99.90
3478;DHT22;37937;61.490;23.506;2023-12-20T00:06:35;0.30;99.90
3478;DHT22;37937;61.490;23.506;2023-12-20T00:09:01;0.30;99.90
3478;DHT22;37937;61.490;23.506;2023-12-20T00:11:27;0.40;99.90
3478;DHT22;37937;61.490;23.506;2023-12-20T00:13:52;0.40;99.90
3478;DHT22;37937;61.490;23.506;2023-12-20T00:16:18;0.50;99.90
3478;DHT22;37937;61.490;23.506;2023-12-20T00:18:44;0.40;99.90
3478;DHT22;37937;61.490;23.506;2023-12-20T00:21:10;0.40;99.90
3478;DHT22;37937;61.490;23.506;2023-12-20T00:23:35;0.40;99.90
3478;DHT22;37937;61.490;23.506;2023-12-20T00:26:01;0.50;99.90
3478;DHT22;37937;61.490;23.506;2023-12-20T00:28:27;0.50;99.90
3478;DHT22;37937;61.490;23.506;2023-12-20T00:30:52;0.50;99.90
3478;DHT22;37937;61.490;23.506;2023-12-20T00:33:18;0.50;99.90
3478;DHT22;37937;61.490;23.506;2023-12-20T00:35:44;0.50;99.90
3478;DHT22;37937;61.490;23.506;2023-12-20T00:38:10;0.60;99.90
3478;DHT22;37937;61.490;23.506;2023-12-20T00:40:36;0.60;99.90
3478;DHT22;37937;61.490;23.506;2023-12-20T00:43:02;0.60;99.90
3478;DHT22;37937;61.490;23.506;2023-12-20T00:45:28;0.60;99.90
3478;DHT22;37937;61.490;23.506;2023-12-20T00:47:54;0.60;99.90
3478;DHT22;37937;61.490;23.506;2023-12-20T00:50:19;0.60;99.90
3478;DHT22;37937;61.490;23.506;2023-12-20T00:52:47;0.60;99.90
3478;DHT22;37937;61.490;23.506;2023-12-20T00:55:13;0.50;99.90
3478;DHT22;37937;61.490;23.506;2023-12-20T00:57:39;0.50;99.90
3478;DHT22;37937;61.490;23.506;2023-12-20T01:00:05;0.50;99.90
3478;DHT22;37937;61.490;23.506;2023-12-20T01:02:30;0.50;99.90
3478;DHT22;37937;61.490;23.506;2023-12-20T01:04:56;0.50;99.90
3478;DHT22;37937;61.490;23.506;2023-12-20T01:07:22;0.40;99.90
3478;DHT22;37937;61.490;23.506;2023-12-20T01:09:47;0.40;99.90
3478;DHT22;37937;61.490;23.506;2023-12-20T01:12:13;0.40;99.90
3478;DHT22;37937;61.490;23.506;2023-12-20T01:14:39;0.40;99.90
3478;DHT22;37937;61.490;23.506;2023-12-20T01:17:04;0.40;99.90
3478;DHT22;37937;61.490;23.506;2023-12-20T01:19:30;0.40;99.90
3478;DHT22;37937;61.490;23.506;2023-12-20T01:21:56;0.40;99.90
3478;DHT22;37937;61.490;23.506;2023-12-20T01:24:21;0.40;99.90
3478;DHT22;37937;61.490;23.506;2023-12-20T01:26:47;0.40;99.90
3478;DHT22;37937;61.490;23.506;2023-12-20T01:29:13;0.40;99.90
3478;DHT22;37937;61.490;23.506;2023-12-20T01:31:39;0.40;99.90
3478;DHT22;37937;61.490;23.506;2023-12-20T01:34:06;0.40;99.90
3478;DHT22;37937;61.490;23.506;2023-12-20T01:36:31;0.50;99.90
3478;DHT22;37937;61.490;23.506;2023-12-20T01:38:57;0.50;99.90
3478;DHT22;37937;61.490;23.506;2023-12-20T01:41:23;0.50;99.90
3478;DHT22;37937;61.490;23.506;2023-12-20T01:43:48;0.50;99.90
3478;DHT22;37937;61.490;23.506;2023-12-20T01:46:14;0.50;99.90
3478;DHT22;37937;61.490;23.506;2023-12-20T01:48:40;0.40;99.90
3478;DHT22;37937;61.490;23.506;2023-12-20T01:51:06;0.40;99.90
3478;DHT22;37937;61.490;23.506;2023-12-20T01:53:32;0.40;99.90
3478;DHT22;37937;61.490;23.506;2023-12-20T01:55:58;0.30;99.90
3478;DHT22;37937;61.490;23.506;2023-12-20T01:58:24;0.30;99.90
3478;DHT22;37937;61.490;23.506;2023-12-20T02:00:50;0.30;99.90
3478;DHT22;37937;61.490;23.506;2023-12-20T02:03:16;0.30;99.90
3478;DHT22;37937;61.490;23.506;2023-12-20T02:05:42;0.40;99.90
3478;DHT22;37937;61.490;23.506;2023-12-20T02:08:08;0.40;99.90
3478;DHT22;37937;61.490;23.506;2023-12-20T02:10:33;0.40;99.90
3478;DHT22;37937;61.490;23.506;2023-12-20T02:12:59;0.40;99.90
3478;DHT22;37937;61.490;23.506;2023-12-20T02:15:27;0.50;99.90
3478;DHT22;37937;61.490;23.506;2023-12-20T02:17:53;0.50;99.90
3478;DHT22;37937;61.490;23.506;2023-12-20T02:20:19;0.50;99.90
3478;DHT22;37937;61.490;23.506;2023-12-20T02:22:44;0.60;99.90
3478;DHT22;37937;61.490;23.506;2023-12-20T02:25:10;0.60;99.90
3478;DHT22;37937;61.490;23.506;2023-12-20T02:27:36;0.70;99.90
3478;DHT22;37937;61.490;23.506;2023-12-20T02:30:02;0.70;99.90
3478;DHT22;37937;61.490;23.506;2023-12-20T02:32:28;0.70;99.90
3478;DHT22;37937;61.490;23.506;2023-12-20T02:34:54;0.60;99.90
3478;DHT22;37937;61.490;23.506;2023-12-20T02:37:20;0.70;99.90
3478;DHT22;37937;61.490;23.506;2023-12-20T02:39:46;0.60;99.90
3478;DHT22;37937;61.490;23.506;2023-12-20T02:42:11;0.70;99.90
3478;DHT22;37937;61.490;23.506;2023-12-20T02:44:37;0.60;99.90
3478;DHT22;37937;61.490;23.506;2023-12-20T02:47:03;0.70;99.90
3478;DHT22;37937;61.490;23.506;2023-12-20T02:49:28;0.70;99.90
3478;DHT22;37937;61.490;23.506;2023-12-20T02:51:54;0.70;99.90
3478;DHT22;37937;61.490;23.506;2023-12-20T02:54:19;0.70;99.90
3478;DHT22;37937;61.490;23.506;2023-12-20T02:56:45;0.70;99.90
3478;DHT22;37937;61.490;23.506;2023-12-20T02:59:11;0.80;99.90
3478;DHT22;37937;61.490;23.506;2023-12-20T03:01:41;0.80;99.90
3478;DHT22;37937;61.490;23.506;2023-12-20T03:04:07;0.80;99.90
3478;DHT22;37937;61.490;23.506;2023-12-20T03:06:33;0.80;99.90
3478;DHT22;37937;61.490;23.506;2023-12-20T03:08:58;0.80;99.90
3478;DHT22;37937;61.490;23.506;2023-12-20T03:11:26;0.80;99.90
3478;DHT22;37937;61.490;23.506;2023-12-20T03:13:52;0.80;99.90
3478;DHT22;37937;61.490;23.506;2023-12-20T03:16:17;0.80;99.90
3478;DHT22;37937;61.490;23.506;2023-12-20T03:18:43;0.70;99.90
3478;DHT22;37937;61.490;23.506;2023-12-20T03:21:09;0.70;99.90
3478;DHT22;37937;61.490;23.506;2023-12-20T03:23:34;0.70;99.90
3478;DHT22;37937;61.490;23.506;2023-12-20T03:26:00;0.70;99.90
3478;DHT22;37937;61.490;23.506;2023-12-20T03:28:26;0.70;99.90
3478;DHT22;37937;61.490;23.506;2023-12-20T03:30:52;0.70;99.90
3478;DHT22;37937;61.490;23.506;2023-12-20T03:33:17;0.70;99.90
3478;DHT22;37937;61.490;23.506;2023-12-20T03:35:43;0.60;99.90
3478;DHT22;37937;61.490;23.506;2023-12-20T03:38:08;0.70;99.90
3478;DHT22;37937;61.490;23.506;2023-12-20T03:40:35;0.70;99.90
3478;DHT22;37937;61.490;23.506;2023-12-20T03:43:00;0.70;99.90
3478;DHT22;37937;61.490;23.506;2023-12-20T03:45:26;0.70;99.90
3478;DHT22;37937;61.490;23.506;2023-12-20T03:47:52;0.70;99.90
3478;DHT22;37937;61.490;23.506;2023-12-20T03:50:25;0.70;99.90
3478;DHT22;37937;61.490;23.506;2023-12-20T03:52:50;0.70;99.90
3478;DHT22;37937;61.490;23.506;2023-12-20T03:55:16;0.80;99.90
3478;DHT22;37937;61.490;23.506;2023-12-20T03:57:42;0.80;99.90
3478;DHT22;37937;61.490;23.506;2023-12-20T04:00:07;0.80;99.90
3478;DHT22;37937;61.490;23.506;2023-12-20T04:02:37;0.80;99.90
3478;DHT22;37937;61.490;23.506;2023-12-20T04:05:03;0.70;99.90
3478;DHT22;37937;61.490;23.506;2023-12-20T04:07:28;0.80;99.90
3478;DHT22;37937;61.490;23.506;2023-12-20T04:09:55;0.80;99.90
3478;DHT22;37937;61.490;23.506;2023-12-20T04:12:20;0.80;99.90
3478;DHT22;37937;61.490;23.506;2023-12-20T04:14:46;0.80;99.90
3478;DHT22;37937;61.490;23.506;2023-12-20T04:17:12;0.80;99.90
3478;DHT22;37937;61.490;23.506;2023-12-20T04:19:37;0.80;99.90
3478;DHT22;37937;61.490;23.506;2023-12-20T04:22:03;0.90;99.90
3478;DHT22;37937;61.490;23.506;2023-12-20T04:24:28;0.80;99.90
3478;DHT22;37937;61.490;23.506;2023-12-20T04:26:54;0.80;99.90
3478;DHT22;37937;61.490;23.506;2023-12-20T04:29:20;0.80;99.90
3478;DHT22;37937;61.490;23.506;2023-12-20T04:31:45;0.70;99.90
3478;DHT22;37937;61.490;23.506;2023-12-20T04:34:11;0.70;99.90
3478;DHT22;37937;61.490;23.506;2023-12-20T04:36:37;0.70;99.90
3478;DHT22;37937;61.490;23.506;2023-12-20T04:39:02;0.70;99.90
3478;DHT22;37937;61.490;23.506;2023-12-20T04:41:28;0.70;99.90
3478;DHT22;37937;61.490;23.506;2023-12-20T04:43:54;0.70;99.90
3478;DHT22;37937;61.490;23.506;2023-12-20T04:46:19;0.60;99.90
3478;DHT22;37937;61.490;23.506;2023-12-20T04:48:45;0.60;99.90
3478;DHT22;37937;61.490;23.506;2023-12-20T04:51:11;0.60;99.90
3478;DHT22;37937;61.490;23.506;2023-12-20T04:53:36;0.60;99.90
3478;DHT22;37937;61.490;23.506;2023-12-20T04:56:02;0.50;99.90
3478;DHT22;37937;61.490;23.506;2023-12-20T04:58:28;0.50;99.90
3478;DHT22;37937;61.490;23.506;2023-12-20T05:00:53;0.50;99.90
3478;DHT22;37937;61.490;23.506;2023-12-20T05:03:19;0.40;99.90
3478;DHT22;37937;61.490;23.506;2023-12-20T05:05:45;0.30;99.90
3478;DHT22;37937;61.490;23.506;2023-12-20T05:08:10;0.30;99.90
3478;DHT22;37937;61.490;23.506;2023-12-20T05:10:36;0.30;99.90
3478;DHT22;37937;61.490;23.506;2023-12-20T05:13:02;0.20;99.90
3478;DHT22;37937;61.490;23.506;2023-12-20T05:15:28;0.20;99.90
3478;DHT22;37937;61.490;23.506;2023-12-20T05:17:53;0.20;99.90
3478;DHT22;37937;61.490;23.506;2023-12-20T05:20:19;0.10;99.90
3478;DHT22;37937;61.490;23.506;2023-12-20T05:22:44;0.10;99.90
3478;DHT22;37937;61.490;23.506;2023-12-20T05:25:10;0.00;99.90
3478;DHT22;37937;61.490;23.506;2023-12-20T05:27:37;0.00;99.90
3478;DHT22;37937;61.490;23.506;2023-12-20T05:30:02;0.00;99.90
3478;DHT22;37937;61.490;23.506;2023-12-20T05:32:29;0.00;99.90
3478;DHT22;37937;61.490;23.506;2023-12-20T05:34:55;0.00;99.90
3478;DHT22;37937;61.490;23.506;2023-12-20T05:37:21;0.00;99.90
3478;DHT22;37937;61.490;23.506;2023-12-20T05:39:46;-0.10;99.90
3478;DHT22;37937;61.490;23.506;2023-12-20T05:42:12;-0.10;99.90
3478;DHT22;37937;61.490;23.506;2023-12-20T05:44:38;-0.10;99.90
3478;DHT22;37937;61.490;23.506;2023-12-20T05:47:03;-0.10;99.90
3478;DHT22;37937;61.490;23.506;2023-12-20T05:49:29;-0.10;99.90
3478;DHT22;37937;61.490;23.506;2023-12-20T05:51:55;-0.20;99.90
3478;DHT22;37937;61.490;23.506;2023-12-20T05:54:20;-0.20;99.90
3478;DHT22;37937;61.490;23.506;2023-12-20T05:56:47;-0.20;99.90
3478;DHT22;37937;61.490;23.506;2023-12-20T05:59:12;-0.20;99.90
3478;DHT22;37937;61.490;23.506;2023-12-20T06:01:39;-0.20;99.90
3478;DHT22;37937;61.490;23.506;2023-12-20T06:04:04;-0.30;99.90
3478;DHT22;37937;61.490;23.506;2023-12-20T06:06:30;-0.30;99.90
3478;DHT22;37937;61.490;23.506;2023-12-20T06:08:56;-0.30;99.90
3478;DHT22;37937;61.490;23.506;2023-12-20T06:11:23;-0.40;99.90
3478;DHT22;37937;61.490;23.506;2023-12-20T06:13:48;-0.40;99.90
3478;DHT22;37937;61.490;23.506;2023-12-20T06:16:17;-0.40;99.90
3478;DHT22;37937;61.490;23.506;2023-12-20T06:18:43;-0.40;99.90
3478;DHT22;37937;61.490;23.506;2023-12-20T06:21:09;-0.40;99.90
3478;DHT22;37937;61.490;23.506;2023-12-20T06:23:38;-0.50;99.90
3478;DHT22;37937;61.490;23.506;2023-12-20T06:26:04;-0.50;99.90
3478;DHT22;37937;61.490;23.506;2023-12-20T06:28:30;-0.50;99.90
3478;DHT22;37937;61.490;23.506;2023-12-20T06:30:55;-0.50;99.90
3478;DHT22;37937;61.490;23.506;2023-12-20T06:33:22;-0.50;99.90
3478;DHT22;37937;61.490;23.506;2023-12-20T06:35:48;-0.60;99.90
3478;DHT22;37937;61.490;23.506;2023-12-20T06:38:14;-0.50;99.90
3478;DHT22;37937;61.490;23.506;2023-12-20T06:40:40;-0.60;99.90
3478;DHT22;37937;61.490;23.506;2023-12-20T06:43:05;-0.60;99.90
3478;DHT22;37937;61.490;23.506;2023-12-20T06:45:32;-0.70;99.90
3478;DHT22;37937;61.490;23.506;2023-12-20T06:47:57;-0.70;99.90
3478;DHT22;37937;61.490;23.506;2023-12-20T06:50:23;-0.80;99.90
3478;DHT22;37937;61.490;23.506;2023-12-20T06:52:49;-0.80;99.90
3478;DHT22;37937;61.490;23.506;2023-12-20T06:55:15;-0.70;99.90
3478;DHT22;37937;61.490;23.506;2023-12-20T06:57:41;-0.80;99.90
3478;DHT22;37937;61.490;23.506;2023-12-20T07:00:06;-0.80;99.90
3478;DHT22;37937;61.490;23.506;2023-12-20T07:02:33;-0.80;99.90
3478;DHT22;37937;61.490;23.506;2023-12-20T07:04:59;-0.80;99.90
3478;DHT22;37937;61.490;23.506;2023-12-20T07:07:25;-0.80;99.90
3478;DHT22;37937;61.490;23.506;2023-12-20T07:09:51;-0.80;99.90
3478;DHT22;37937;61.490;23.506;2023-12-20T07:12:17;-0.80;99.90
3478;DHT22;37937;61.490;23.506;2023-12-20T07:14:45;-0.80;99.90
3478;DHT22;37937;61.490;23.506;2023-12-20T07:17:10;-0.80;99.90
3478;DHT22;37937;61.490;23.506;2023-12-20T07:19:37;-0.80;99.90
3478;DHT22;37937;61.490;23.506;2023-12-20T07:22:03;-0.80;99.90
3478;DHT22;37937;61.490;23.506;2023-12-20T07:24:29;-0.80;99.90
3478;DHT22;37937;61.490;23.506;2023-12-20T07:26:55;-0.80;99.90
3478;DHT22;37937;61.490;23.506;2023-12-20T07:29:20;-0.90;99.90
3478;DHT22;37937;61.490;23.506;2023-12-20T07:31:46;-0.90;99.90
3478;DHT22;37937;61.490;23.506;2023-12-20T07:34:11;-0.80;99.90
3478;DHT22;37937;61.490;23.506;2023-12-20T07:36:37;-0.80;99.90
3478;DHT22;37937;61.490;23.506;2023-12-20T07:39:03;-0.80;99.90
3478;DHT22;37937;61.490;23.506;2023-12-20T07:41:28;-0.90;99.90
3478;DHT22;37937;61.490;23.506;2023-12-20T07:43:54;-1.00;99.90
3478;DHT22;37937;61.490;23.506;2023-12-20T07:46:21;-1.00;99.90
3478;DHT22;37937;61.490;23.506;2023-12-20T07:48:49;-1.00;99.90
3478;DHT22;37937;61.490;23.506;2023-12-20T07:51:15;-1.00;99.90
3478;DHT22;37937;61.490;23.506;2023-12-20T07:53:41;-1.00;99.90
3478;DHT22;37937;61.490;23.506;2023-12-20T07:56:13;-1.00;99.90
3478;DHT22;37937;61.490;23.506;2023-12-20T07:58:39;-1.00;99.90
3478;DHT22;37937;61.490;23.506;2023-12-20T08:01:05;-1.00;99.90
3478;DHT22;37937;61.490;23.506;2023-12-20T08:03:30;-1.00;99.90
3478;DHT22;37937;61.490;23.506;2023-12-20T08:05:56;-1.00;99.90
3478;DHT22;37937;61.490;23.506;2023-12-20T08:08:25;-1.00;99.90
3478;DHT22;37937;61.490;23.506;2023-12-20T08:10:50;-1.10;99.90
3478;DHT22;37937;61.490;23.506;2023-12-20T08:13:16;-1.10;99.90
3478;DHT22;37937;61.490;23.506;2023-12-20T08:15:42;-1.10;99.90
3478;DHT22;37937;61.490;23.506;2023-12-20T08:18:07;-1.10;99.90
3478;DHT22;37937;61.490;23.506;2023-12-20T08:20:33;-1.10;99.90
3478;DHT22;37937;61.490;23.506;2023-12-20T08:22:59;-1.10;99.90
3478;DHT22;37937;61.490;23.506;2023-12-20T08:25:24;-1.20;99.90
3478;DHT22;37937;61.490;23.506;2023-12-20T08:27:50;-1.10;99.90
3478;DHT22;37937;61.490;23.506;2023-12-20T08:30:15;-1.20;99.90
3478;DHT22;37937;61.490;23.506;2023-12-20T08:32:46;-1.20;99.90
3478;DHT22;37937;61.490;23.506;2023-12-20T08:35:11;-1.20;99.90
3478;DHT22;37937;61.490;23.506;2023-12-20T08:37:37;-1.20;99.90
3478;DHT22;37937;61.490;23.506;2023-12-20T08:40:03;-1.20;99.90
3478;DHT22;37937;61.490;23.506;2023-12-20T08:42:28;-1.20;99.90
3478;DHT22;37937;61.490;23.506;2023-12-20T08:44:59;-1.20;99.90
3478;DHT22;37937;61.490;23.506;2023-12-20T08:47:25;-1.20;99.90
3478;DHT22;37937;61.490;23.506;2023-12-20T08:49:50;-1.30;99.90
3478;DHT22;37937;61.490;23.506;2023-12-20T08:52:16;-1.20;99.90
3478;DHT22;37937;61.490;23.506;2023-12-20T08:54:43;-1.30;99.90
3478;DHT22;37937;61.490;23.506;2023-12-20T08:57:08;-1.30;99.90
3478;DHT22;37937;61.490;23.506;2023-12-20T08:59:34;-1.30;99.90
3478;DHT22;37937;61.490;23.506;2023-12-20T09:01:59;-1.30;99.90
3478;DHT22;37937;61.490;23.506;2023-12-20T09:04:25;-1.40;99.90
3478;DHT22;37937;61.490;23.506;2023-12-20T09:06:51;-1.30;99.90
3478;DHT22;37937;61.490;23.506;2023-12-20T09:09:16;-1.30;99.90
3478;DHT22;37937;61.490;23.506;2023-12-20T09:11:42;-1.30;99.90
3478;DHT22;37937;61.490;23.506;2023-12-20T09:14:08;-1.30;99.90
3478;DHT22;37937;61.490;23.506;2023-12-20T09:16:33;-1.30;99.90
3478;DHT22;37937;61.490;23.506;2023-12-20T09:18:59;-1.20;99.90
3478;DHT22;37937;61.490;23.506;2023-12-20T09:21:25;-1.30;99.90
3478;DHT22;37937;61.490;23.506;2023-12-20T09:23:51;-1.30;99.90
3478;DHT22;37937;61.490;23.506;2023-12-20T09:26:16;-1.30;99.90
3478;DHT22;37937;61.490;23.506;2023-12-20T09:28:42;-1.30;99.90
3478;DHT22;37937;61.490;23.506;2023-12-20T09:31:08;-1.20;99.90
3478;DHT22;37937;61.490;23.506;2023-12-20T09:33:33;-1.20;99.90
3478;DHT22;37937;61.490;23.506;2023-12-20T09:35:59;-1.20;99.90
3478;DHT22;37937;61.490;23.506;2023-12-20T09:38:25;-1.20;99.90
3478;DHT22;37937;61.490;23.506;2023-12-20T09:40:50;-1.20;99.90
3478;DHT22;37937;61.490;23.506;2023-12-20T09:43:18;-1.20;99.90
3478;DHT22;37937;61.490;23.506;2023-12-20T09:45:45;-1.10;99.90
3478;DHT22;37937;61.490;23.506;2023-12-20T09:48:11;-1.10;99.90
3478;DHT22;37937;61.490;23.506;2023-12-20T09:50:37;-1.10;99.90
3478;DHT22;37937;61.490;23.506;2023-12-20T09:53:03;-1.10;99.90
3478;DHT22;37937;61.490;23.506;2023-12-20T09:55:30;-1.00;99.90
3478;DHT22;37937;61.490;23.506;2023-12-20T09:57:57;-1.10;99.90
3478;DHT22;37937;61.490;23.506;2023-12-20T10:00:23;-1.00;99.90
3478;DHT22;37937;61.490;23.506;2023-12-20T10:05:20;-1.00;99.90
3478;DHT22;37937;61.490;23.506;2023-12-20T10:07:48;-1.00;99.90
3478;DHT22;37937;61.490;23.506;2023-12-20T10:10:13;-1.00;99.90
3478;DHT22;37937;61.490;23.506;2023-12-20T10:12:40;-1.00;99.90
3478;DHT22;37937;61.490;23.506;2023-12-20T10:15:05;-0.90;99.90
3478;DHT22;37937;61.490;23.506;2023-12-20T10:17:31;-0.90;99.90
3478;DHT22;37937;61.490;23.506;2023-12-20T10:19:57;-0.80;99.90
3478;DHT22;37937;61.490;23.506;2023-12-20T10:22:23;-0.90;99.90
3478;DHT22;37937;61.490;23.506;2023-12-20T10:24:49;-0.80;99.90
3478;DHT22;37937;61.490;23.506;2023-12-20T10:27:15;-0.80;99.90
3478;DHT22;37937;61.490;23.506;2023-12-20T10:29:44;-0.80;99.90
3478;DHT22;37937;61.490;23.506;2023-12-20T10:32:31;-0.70;99.90
3478;DHT22;37937;61.490;23.506;2023-12-20T10:34:56;-0.70;99.90
3478;DHT22;37937;61.490;23.506;2023-12-20T10:37:22;-0.80;99.90
3478;DHT22;37937;61.490;23.506;2023-12-20T10:39:57;-0.70;99.90
3478;DHT22;37937;61.490;23.506;2023-12-20T10:42:27;-0.80;99.90
3478;DHT22;37937;61.490;23.506;2023-12-20T10:44:52;-0.80;99.90
3478;DHT22;37937;61.490;23.506;2023-12-20T10:47:21;-0.80;99.90
3478;DHT22;37937;61.490;23.506;2023-12-20T10:49:48;-0.90;99.90
3478;DHT22;37937;61.490;23.506;2023-12-20T10:52:13;-0.90;99.90
3478;DHT22;37937;61.490;23.506;2023-12-20T10:54:42;-0.90;99.90
3478;DHT22;37937;61.490;23.506;2023-12-20T10:57:08;-1.00;99.90
3478;DHT22;37937;61.490;23.506;2023-12-20T10:59:34;-1.00;99.90
3478;DHT22;37937;61.490;23.506;2023-12-20T11:02:02;-1.10;99.90
3478;DHT22;37937;61.490;23.506;2023-12-20T11:07:18;-1.10;99.90
3478;DHT22;37937;61.490;23.506;2023-12-20T11:09:47;-1.20;99.90
3478;DHT22;37937;61.490;23.506;2023-12-20T11:12:19;-1.20;99.90
3478;DHT22;37937;61.490;23.506;2023-12-20T11:14:47;-1.20;99.90
3478;DHT22;37937;61.490;23.506;2023-12-20T11:17:13;-1.30;99.90
3478;DHT22;37937;61.490;23.506;2023-12-20T11:22:22;-1.30;99.90
3478;DHT22;37937;61.490;23.506;2023-12-20T11:24:49;-1.30;99.90
3478;DHT22;37937;61.490;23.506;2023-12-20T11:27:15;-1.30;99.90
3478;DHT22;37937;61.490;23.506;2023-12-20T11:29:41;-1.30;99.90
3478;DHT22;37937;61.490;23.506;2023-12-20T11:34:55;-1.30;99.90
3478;DHT22;37937;61.490;23.506;2023-12-20T11:37:21;-1.30;99.90
3478;DHT22;37937;61.490;23.506;2023-12-20T11:39:56;-1.40;99.90
3478;DHT22;37937;61.490;23.506;2023-12-20T11:42:22;-1.40;99.90
3478;DHT22;37937;61.490;23.506;2023-12-20T11:44:47;-1.40;99.90
3478;DHT22;37937;61.490;23.506;2023-12-20T11:47:13;-1.40;99.90
3478;DHT22;37937;61.490;23.506;2023-12-20T11:49:41;-1.40;99.90
3478;DHT22;37937;61.490;23.506;2023-12-20T11:52:06;-1.50;99.90
3478;DHT22;37937;61.490;23.506;2023-12-20T11:54:32;-1.60;99.90
3478;DHT22;37937;61.490;23.506;2023-12-20T11:56:58;-1.60;99.90
3478;DHT22;37937;61.490;23.506;2023-12-20T11:59:24;-1.60;99.90
3478;DHT22;37937;61.490;23.506;2023-12-20T12:01:50;-1.70;99.90
3478;DHT22;37937;61.490;23.506;2023-12-20T12:04:16;-1.60;99.90
3478;DHT22;37937;61.490;23.506;2023-12-20T12:06:43;-1.70;99.90
3478;DHT22;37937;61.490;23.506;2023-12-20T12:09:09;-1.70;99.90
3478;DHT22;37937;61.490;23.506;2023-12-20T12:11:34;-1.70;99.90
3478;DHT22;37937;61.490;23.506;2023-12-20T12:14:00;-1.70;99.90
3478;DHT22;37937;61.490;23.506;2023-12-20T12:16:26;-1.50;99.90
3478;DHT22;37937;61.490;23.506;2023-12-20T12:18:58;-1.60;99.90
3478;DHT22;37937;61.490;23.506;2023-12-20T12:21:24;-1.70;99.90
3478;DHT22;37937;61.490;23.506;2023-12-20T12:23:50;-1.70;99.90
3478;DHT22;37937;61.490;23.506;2023-12-20T12:26:15;-1.70;99.90
3478;DHT22;37937;61.490;23.506;2023-12-20T12:28:41;-1.80;99.90
3478;DHT22;37937;61.490;23.506;2023-12-20T12:31:08;-1.80;99.90
3478;DHT22;37937;61.490;23.506;2023-12-20T12:33:34;-1.80;99.90
3478;DHT22;37937;61.490;23.506;2023-12-20T12:36:02;-1.80;99.90
3478;DHT22;37937;61.490;23.506;2023-12-20T12:38:30;-1.80;99.90
3478;DHT22;37937;61.490;23.506;2023-12-20T12:40:56;-1.90;99.90
3478;DHT22;37937;61.490;23.506;2023-12-20T12:43:22;-1.90;99.90
3478;DHT22;37937;61.490;23.506;2023-12-20T12:45:48;-1.90;99.90
3478;DHT22;37937;61.490;23.506;2023-12-20T12:48:14;-2.00;99.90
3478;DHT22;37937;61.490;23.506;2023-12-20T12:50:40;-1.90;99.90
3478;DHT22;37937;61.490;23.506;2023-12-20T12:53:05;-1.90;99.90
3478;DHT22;37937;61.490;23.506;2023-12-20T12:55:31;-2.00;99.90
3478;DHT22;37937;61.490;23.506;2023-12-20T12:57:57;-2.10;99.90
3478;DHT22;37937;61.490;23.506;2023-12-20T13:00:22;-2.10;99.90
3478;DHT22;37937;61.490;23.506;2023-12-20T13:02:49;-2.10;99.90
3478;DHT22;37937;61.490;23.506;2023-12-20T13:05:15;-2.20;99.90
3478;DHT22;37937;61.490;23.506;2023-12-20T13:07:40;-2.10;99.90
3478;DHT22;37937;61.490;23.506;2023-12-20T13:10:06;-2.20;99.90
3478;DHT22;37937;61.490;23.506;2023-12-20T13:12:32;-2.20;99.90
3478;DHT22;37937;61.490;23.506;2023-12-20T13:14:57;-2.20;99.90
3478;DHT22;37937;61.490;23.506;2023-12-20T13:17:23;-2.20;99.90
3478;DHT22;37937;61.490;23.506;2023-12-20T13:19:50;-2.20;99.90
3478;DHT22;37937;61.490;23.506;2023-12-20T13:22:15;-2.30;99.90
3478;DHT22;37937;61.490;23.506;2023-12-20T13:24:41;-2.30;99.90
3478;DHT22;37937;61.490;23.506;2023-12-20T13:27:09;-2.40;99.90
3478;DHT22;37937;61.490;23.506;2023-12-20T13:29:35;-2.30;99.90
3478;DHT22;37937;61.490;23.506;2023-12-20T13:32:01;-2.30;99.90
3478;DHT22;37937;61.490;23.506;2023-12-20T13:34:29;-2.30;99.90
3478;DHT22;37937;61.490;23.506;2023-12-20T13:36:54;-2.30;99.90
3478;DHT22;37937;61.490;23.506;2023-12-20T13:39:20;-2.30;99.90
3478;DHT22;37937;61.490;23.506;2023-12-20T13:41:46;-2.30;99.90
3478;DHT22;37937;61.490;23.506;2023-12-20T13:44:12;-2.30;99.90
3478;DHT22;37937;61.490;23.506;2023-12-20T13:46:38;-2.40;99.90
3478;DHT22;37937;61.490;23.506;2023-12-20T13:49:04;-2.40;99.90
3478;DHT22;37937;61.490;23.506;2023-12-20T13:51:30;-2.40;99.90
3478;DHT22;37937;61.490;23.506;2023-12-20T13:53:56;-2.40;99.90
3478;DHT22;37937;61.490;23.506;2023-12-20T13:56:22;-2.30;99.90
3478;DHT22;37937;61.490;23.506;2023-12-20T13:58:48;-2.40;99.90
3478;DHT22;37937;61.490;23.506;2023-12-20T14:01:14;-2.40;99.90
3478;DHT22;37937;61.490;23.506;2023-12-20T14:03:40;-2.50;99.90
3478;DHT22;37937;61.490;23.506;2023-12-20T14:06:06;-2.60;99.90
3478;DHT22;37937;61.490;23.506;2023-12-20T14:08:32;-2.50;99.90
3478;DHT22;37937;61.490;23.506;2023-12-20T14:10:58;-2.50;99.90
3478;DHT22;37937;61.490;23.506;2023-12-20T14:13:23;-2.50;99.90
3478;DHT22;37937;61.490;23.506;2023-12-20T14:15:49;-2.50;99.90
3478;DHT22;37937;61.490;23.506;2023-12-20T14:18:15;-2.50;99.90
3478;DHT22;37937;61.490;23.506;2023-12-20T14:20:40;-2.50;99.90
3478;DHT22;37937;61.490;23.506;2023-12-20T14:23:08;-2.50;99.90
3478;DHT22;37937;61.490;23.506;2023-12-20T14:25:35;-2.60;99.90
3478;DHT22;37937;61.490;23.506;2023-12-20T14:28:03;-2.50;99.90
3478;DHT22;37937;61.490;23.506;2023-12-20T14:30:28;-2.50;99.90
3478;DHT22;37937;61.490;23.506;2023-12-20T14:32:55;-2.70;99.90
3478;DHT22;37937;61.490;23.506;2023-12-20T14:35:21;-2.60;99.90
3478;DHT22;37937;61.490;23.506;2023-12-20T14:37:47;-2.60;99.90
3478;DHT22;37937;61.490;23.506;2023-12-20T14:40:12;-2.60;99.90
3478;DHT22;37937;61.490;23.506;2023-12-20T14:42:45;-2.60;99.90
3478;DHT22;37937;61.490;23.506;2023-12-20T14:45:11;-2.60;99.90
3478;DHT22;37937;61.490;23.506;2023-12-20T14:47:38;-2.60;99.90
3478;DHT22;37937;61.490;23.506;2023-12-20T14:50:04;-2.70;99.90
3478;DHT22;37937;61.490;23.506;2023-12-20T14:52:30;-2.70;99.90
3478;DHT22;37937;61.490;23.506;2023-12-20T14:54:56;-2.70;99.90
3478;DHT22;37937;61.490;23.506;2023-12-20T14:57:22;-2.70;99.90
3478;DHT22;37937;61.490;23.506;2023-12-20T14:59:47;-2.70;99.90
3478;DHT22;37937;61.490;23.506;2023-12-20T15:02:13;-2.80;99.90
3478;DHT22;37937;61.490;23.506;2023-12-20T15:04:40;-2.80;99.90
3478;DHT22;37937;61.490;23.506;2023-12-20T15:07:06;-2.80;99.90
3478;DHT22;37937;61.490;23.506;2023-12-20T15:09:32;-2.70;99.90
3478;DHT22;37937;61.490;23.506;2023-12-20T15:11:57;-2.70;99.90
3478;DHT22;37937;61.490;23.506;2023-12-20T15:14:23;-2.80;99.90
3478;DHT22;37937;61.490;23.506;2023-12-20T15:16:49;-2.80;99.90
3478;DHT22;37937;61.490;23.506;2023-12-20T15:19:14;-2.80;99.90
3478;DHT22;37937;61.490;23.506;2023-12-20T15:21:41;-2.80;99.90
3478;DHT22;37937;61.490;23.506;2023-12-20T15:24:10;-2.80;99.90
3478;DHT22;37937;61.490;23.506;2023-12-20T15:26:40;-2.80;99.90
3478;DHT22;37937;61.490;23.506;2023-12-20T15:29:07;-2.90;99.90
3478;DHT22;37937;61.490;23.506;2023-12-20T15:31:34;-2.90;99.90
3478;DHT22;37937;61.490;23.506;2023-12-20T15:34:01;-2.90;99.90
3478;DHT22;37937;61.490;23.506;2023-12-20T15:36:26;-2.90;99.90
3478;DHT22;37937;61.490;23.506;2023-12-20T15:38:52;-2.90;99.90
3478;DHT22;37937;61.490;23.506;2023-12-20T15:41:18;-2.90;99.90